KFNL/FNL METAR and TAF weather

Enter ICAO airport designator
Station Type Date Time Source
KFNL METAR 2020/09/19 01:56 UTC NOAA

KFNL 190156Z 02008KT 7SM CLR 20/11 A3014 RMK AO2 SLP164 T02000106


Station Type Date Time Source
KFNL Decoded METAR 2020/09/19 01:56 UTC NOAA

Fort Collins/Loveland, Fort Collins-Loveland Municipal Airport, CO, United States (KFNL) 40-27N 105-01W
Sep 18, 2020 - 09:56 PM EDT / 2020.09.19 0156 UTC
Wind: from the NNE (020 degrees) at 9 MPH (8 KT):0
Visibility: 7 mile(s):0
Sky conditions: clear
Temperature: 68.0 F (20.0 C)
Dew Point: 51.1 F (10.6 C)
Relative Humidity: 54%
Pressure (altimeter): 30.14 in. Hg (1020 hPa)
ob: KFNL 190156Z 02008KT 7SM CLR 20/11 A3014 RMK AO2 SLP164 T02000106
cycle: 2

Station Type Date Time Source
KFNL TAF UTC NOAA

Error!

Example: see airport list